Time;durP1;ratioP1;P1;durP2;ratioP2;P2;SDS_P1;SDS_P2;PMS_P1;PMS_P2;Temp;Humidity;BMP_temperature;BMP_pressure;BME280_temperature;BME280_humidity;BME280_pressure;Samples;Min_cycle;Max_cycle;Signal;HPM_P1;HPM_P2
2023/03/31 00:00:53;;;;;;;;;;;10.10;99.90;;;;;;4967024;28;20010;-89
2023/03/31 00:03:22;;;;;;;;;;;10.10;99.90;;;;;;4968892;28;19930;-88
2023/03/31 00:05:52;;;;;;;;;;;10.10;99.90;;;;;;4963734;28;19966;-89
2023/03/31 00:08:20;;;;;;;;;;;10.10;99.90;;;;;;4967337;28;19934;-89
2023/03/31 00:10:48;;;;;;;;;;;10.10;99.90;;;;;;4982799;28;19929;-89
2023/03/31 00:13:15;;;;;;;;;;;10.10;99.90;;;;;;4964461;28;19973;-90
2023/03/31 00:15:42;;;;;;;;;;;10.10;99.90;;;;;;4966589;28;20377;-89
2023/03/31 00:18:08;;;;;;;;;;;10.00;99.90;;;;;;4966769;28;20038;-89
2023/03/31 00:20:36;;;;;;;;;;;10.00;99.90;;;;;;4970567;28;21807;-90
2023/03/31 00:23:09;;;;;;;;;;;10.00;99.90;;;;;;4969973;28;19930;-89
2023/03/31 00:25:39;;;;;;;;;;;10.00;99.90;;;;;;4971539;28;19988;-88
2023/03/31 00:28:05;;;;;;;;;;;10.00;99.90;;;;;;4968951;28;19940;-89
2023/03/31 00:30:32;;;;;;;;;;;10.00;99.90;;;;;;4970066;28;19927;-89
2023/03/31 00:33:00;;;;;;;;;;;10.00;99.90;;;;;;4968134;28;19932;-90
2023/03/31 00:35:27;;;;;;;;;;;10.00;99.90;;;;;;4968724;28;20475;-90
2023/03/31 00:37:56;;;;;;;;;;;9.90;99.90;;;;;;4966989;28;20028;-89
2023/03/31 00:40:23;;;;;;;;;;;9.90;99.90;;;;;;4965246;28;19930;-89
2023/03/31 00:42:52;;;;;;;;;;;9.90;99.90;;;;;;4983083;28;19930;-88
2023/03/31 00:45:27;;;;;;;;;;;9.90;99.90;;;;;;4973368;28;19926;-89
2023/03/31 00:47:55;;;;;;;;;;;9.90;99.90;;;;;;4968059;28;21696;-89
2023/03/31 00:50:23;;;;;;;;;;;9.80;99.90;;;;;;4966849;28;19930;-90
2023/03/31 00:52:51;;;;;;;;;;;9.90;99.90;;;;;;4968493;28;20025;-89
2023/03/31 00:55:21;;;;;;;;;;;9.80;99.90;;;;;;4972180;28;19984;-89
2023/03/31 00:57:48;;;;;;;;;;;9.80;99.90;;;;;;4964086;28;19988;-89
2023/03/31 01:00:17;;;;;;;;;;;9.80;99.90;;;;;;4964210;28;19927;-89
2023/03/31 01:02:51;;;;;;;;;;;9.80;99.90;;;;;;4982457;28;19942;-91
2023/03/31 01:05:18;;;;;;;;;;;9.80;99.90;;;;;;4968495;28;19934;-88
2023/03/31 01:07:48;;;;;;;;;;;9.80;99.90;;;;;;4964731;28;20037;-89
2023/03/31 01:10:15;;;;;;;;;;;9.80;99.90;;;;;;4966747;28;20689;-88
2023/03/31 01:12:43;;;;;;;;;;;9.80;99.90;;;;;;4966639;28;20213;-89
2023/03/31 01:15:11;;;;;;;;;;;9.80;99.90;;;;;;4968295;28;19952;-89
2023/03/31 01:17:43;;;;;;;;;;;9.70;99.90;;;;;;4963732;28;19930;-88
2023/03/31 01:20:17;;;;;;;;;;;9.70;99.90;;;;;;4968297;28;20305;-89
2023/03/31 01:23:00;;;;;;;;;;;9.70;99.90;;;;;;4965339;28;19981;-89
2023/03/31 01:25:44;;;;;;;;;;;9.70;99.90;;;;;;4964124;28;20018;-90
2023/03/31 01:28:18;;;;;;;;;;;9.70;99.90;;;;;;4963939;28;19969;-90
2023/03/31 01:30:59;;;;;;;;;;;9.70;99.90;;;;;;4964631;28;20793;-91
2023/03/31 01:33:47;;;;;;;;;;;9.70;99.90;;;;;;4966117;28;19996;-89
2023/03/31 01:36:38;;;;;;;;;;;9.70;99.90;;;;;;4959804;28;19934;-88
2023/03/31 01:39:14;;;;;;;;;;;9.70;99.90;;;;;;4964477;28;19938;-90
2023/03/31 01:41:49;;;;;;;;;;;9.60;99.90;;;;;;4958905;28;20509;-89
2023/03/31 01:44:20;;;;;;;;;;;9.60;99.90;;;;;;4962604;28;20751;-90
2023/03/31 01:46:50;;;;;;;;;;;9.60;99.90;;;;;;4965209;28;19934;-89
2023/03/31 01:49:22;;;;;;;;;;;9.60;99.90;;;;;;4961447;28;19932;-88
2023/03/31 01:51:52;;;;;;;;;;;9.60;99.90;;;;;;4963251;28;19927;-88
2023/03/31 01:54:20;;;;;;;;;;;9.60;99.90;;;;;;4984387;28;19937;-91
2023/03/31 01:56:52;;;;;;;;;;;9.60;99.90;;;;;;4965793;28;21071;-88
2023/03/31 01:59:23;;;;;;;;;;;9.60;99.90;;;;;;4962785;28;19935;-89
2023/03/31 02:01:52;;;;;;;;;;;9.60;99.90;;;;;;4962883;28;19925;-89
2023/03/31 02:04:20;;;;;;;;;;;9.60;99.90;;;;;;4983731;28;20006;-88
2023/03/31 02:06:51;;;;;;;;;;;9.60;99.90;;;;;;4963624;28;19926;-90
2023/03/31 02:09:21;;;;;;;;;;;9.60;99.90;;;;;;4968766;28;20384;-89
2023/03/31 02:11:50;;;;;;;;;;;9.60;99.90;;;;;;4983458;28;20032;-90
2023/03/31 02:14:20;;;;;;;;;;;9.60;99.90;;;;;;4963187;28;19933;-88
2023/03/31 02:16:49;;;;;;;;;;;9.50;99.90;;;;;;4980225;28;20410;-88
2023/03/31 02:19:18;;;;;;;;;;;9.50;99.90;;;;;;4965599;28;19969;-91
2023/03/31 02:21:47;;;;;;;;;;;9.50;99.90;;;;;;4969141;28;19926;-89
2023/03/31 02:24:15;;;;;;;;;;;9.50;99.90;;;;;;4964869;28;19934;-89
2023/03/31 02:26:52;;;;;;;;;;;9.50;99.90;;;;;;4967408;28;20289;-88
2023/03/31 02:29:18;;;;;;;;;;;9.50;99.90;;;;;;4967507;28;19982;-89
2023/03/31 02:31:47;;;;;;;;;;;9.50;99.90;;;;;;4978860;28;19934;-88
2023/03/31 02:34:14;;;;;;;;;;;9.50;99.90;;;;;;4965501;28;19934;-88
2023/03/31 02:36:42;;;;;;;;;;;9.50;99.90;;;;;;4966901;28;20389;-89
2023/03/31 02:39:11;;;;;;;;;;;9.50;99.90;;;;;;4967900;28;19937;-88
2023/03/31 02:41:38;;;;;;;;;;;9.50;99.90;;;;;;4963641;28;19926;-89
2023/03/31 02:44:06;;;;;;;;;;;9.50;99.90;;;;;;4965179;28;19926;-88
2023/03/31 02:46:33;;;;;;;;;;;9.50;99.90;;;;;;4966513;28;20361;-90
2023/03/31 02:49:02;;;;;;;;;;;9.50;99.90;;;;;;4962479;28;19926;-89
2023/03/31 02:51:44;;;;;;;;;;;9.50;99.90;;;;;;4966037;28;19949;-89
2023/03/31 02:54:19;;;;;;;;;;;9.50;99.90;;;;;;4958900;28;19932;-89
2023/03/31 02:57:10;;;;;;;;;;;9.40;99.90;;;;;;4964143;28;19941;-89
2023/03/31 02:59:43;;;;;;;;;;;9.40;99.90;;;;;;4964499;28;19941;-88
2023/03/31 03:02:15;;;;;;;;;;;9.50;99.90;;;;;;4966503;28;19941;-88
2023/03/31 03:04:58;;;;;;;;;;;9.40;99.90;;;;;;4964556;28;20389;-88
2023/03/31 03:07:28;;;;;;;;;;;9.40;99.90;;;;;;4963484;28;20036;-89
2023/03/31 03:09:59;;;;;;;;;;;9.40;99.90;;;;;;4983609;28;20021;-89
2023/03/31 03:12:29;;;;;;;;;;;9.40;99.90;;;;;;4985442;28;19926;-92
2023/03/31 03:15:01;;;;;;;;;;;9.40;99.90;;;;;;5003800;28;19930;-90
2023/03/31 03:17:30;;;;;;;;;;;9.40;99.90;;;;;;4970046;28;19989;-89
2023/03/31 03:20:00;;;;;;;;;;;9.40;99.90;;;;;;4968530;28;19941;-88
2023/03/31 03:22:27;;;;;;;;;;;9.40;99.90;;;;;;4967469;28;19934;-89
2023/03/31 03:24:54;;;;;;;;;;;9.40;99.90;;;;;;4962533;28;19973;-90
2023/03/31 03:27:22;;;;;;;;;;;9.40;99.90;;;;;;4970789;28;19964;-89
2023/03/31 03:29:48;;;;;;;;;;;9.40;99.90;;;;;;4962861;28;20235;-89
2023/03/31 03:32:17;;;;;;;;;;;9.40;99.90;;;;;;4963660;28;19926;-89
2023/03/31 03:34:44;;;;;;;;;;;9.30;99.90;;;;;;4966136;28;20045;-88
2023/03/31 03:37:11;;;;;;;;;;;9.30;99.90;;;;;;4964418;28;19926;-89
2023/03/31 03:39:37;;;;;;;;;;;9.30;99.90;;;;;;4957187;28;19932;-88
2023/03/31 03:42:04;;;;;;;;;;;9.30;99.90;;;;;;4958204;28;19936;-89
2023/03/31 03:44:31;;;;;;;;;;;9.30;99.90;;;;;;4979243;28;19966;-88
2023/03/31 03:46:58;;;;;;;;;;;9.30;99.90;;;;;;4958631;28;19926;-90
2023/03/31 03:49:26;;;;;;;;;;;9.30;99.90;;;;;;4960070;28;20358;-88
2023/03/31 03:51:53;;;;;;;;;;;9.30;99.90;;;;;;4962498;28;20381;-89
2023/03/31 03:54:20;;;;;;;;;;;9.30;99.90;;;;;;4964350;28;20190;-88
2023/03/31 03:56:47;;;;;;;;;;;9.30;99.90;;;;;;4960020;28;19934;-89
2023/03/31 03:59:14;;;;;;;;;;;9.30;99.90;;;;;;4960212;28;20409;-90
2023/03/31 04:01:41;;;;;;;;;;;9.30;99.90;;;;;;4965690;28;20314;-88
2023/03/31 04:04:08;;;;;;;;;;;9.30;99.90;;;;;;4971265;28;20409;-88
2023/03/31 04:06:38;;;;;;;;;;;9.30;99.90;;;;;;4967648;28;19926;-92
2023/03/31 04:09:05;;;;;;;;;;;9.20;99.90;;;;;;4972032;28;19934;-88
2023/03/31 04:11:32;;;;;;;;;;;9.20;99.90;;;;;;4975587;28;19941;-88
2023/03/31 04:13:59;;;;;;;;;;;9.20;99.90;;;;;;4968775;28;19926;-89
2023/03/31 04:16:26;;;;;;;;;;;9.20;99.90;;;;;;4974238;28;20308;-88
2023/03/31 04:18:55;;;;;;;;;;;9.20;99.90;;;;;;4971432;28;19926;-90
2023/03/31 04:21:22;;;;;;;;;;;9.20;99.90;;;;;;4969073;28;20021;-88
2023/03/31 04:23:57;;;;;;;;;;;9.20;99.90;;;;;;4965678;28;19934;-89
2023/03/31 04:26:29;;;;;;;;;;;9.20;99.90;;;;;;4965573;28;20489;-90
2023/03/31 04:28:59;;;;;;;;;;;9.20;99.90;;;;;;4963353;28;20309;-89
2023/03/31 04:31:26;;;;;;;;;;;9.20;99.90;;;;;;4968709;28;19988;-89
2023/03/31 04:33:53;;;;;;;;;;;9.20;99.90;;;;;;4971835;28;20393;-88
2023/03/31 04:36:20;;;;;;;;;;;9.20;99.90;;;;;;4967677;28;19930;-89
2023/03/31 04:38:49;;;;;;;;;;;9.20;99.90;;;;;;4970169;28;20448;-89
2023/03/31 04:41:17;;;;;;;;;;;9.20;99.90;;;;;;4971876;28;19958;-88
2023/03/31 04:43:45;;;;;;;;;;;9.20;99.90;;;;;;4972278;28;19926;-89
2023/03/31 04:46:12;;;;;;;;;;;9.20;99.90;;;;;;4970628;28;19926;-90
2023/03/31 04:48:39;;;;;;;;;;;9.10;99.90;;;;;;4966759;28;19927;-88
2023/03/31 04:51:06;;;;;;;;;;;9.10;99.90;;;;;;4969227;28;20403;-91
2023/03/31 04:53:33;;;;;;;;;;;9.10;99.90;;;;;;4965335;28;19930;-89
2023/03/31 04:56:00;;;;;;;;;;;9.10;99.90;;;;;;4968643;28;19937;-88
2023/03/31 04:58:28;;;;;;;;;;;9.10;99.90;;;;;;4961593;28;20278;-90
2023/03/31 05:00:55;;;;;;;;;;;9.10;99.90;;;;;;4980638;28;19930;-88
2023/03/31 05:03:22;;;;;;;;;;;9.10;99.90;;;;;;4962582;28;19934;-88
2023/03/31 05:05:49;;;;;;;;;;;9.10;99.90;;;;;;4973216;28;19934;-89
2023/03/31 05:08:16;;;;;;;;;;;9.10;99.90;;;;;;4966667;28;20324;-89
2023/03/31 05:10:43;;;;;;;;;;;9.10;99.90;;;;;;4973915;28;20289;-88
2023/03/31 05:13:10;;;;;;;;;;;9.00;99.90;;;;;;4965610;28;19966;-88
2023/03/31 05:15:39;;;;;;;;;;;9.00;99.90;;;;;;4966770;28;19931;-88
2023/03/31 05:18:06;;;;;;;;;;;9.00;99.90;;;;;;4966059;28;19934;-87
2023/03/31 05:20:33;;;;;;;;;;;9.00;99.90;;;;;;4971101;28;19925;-89
2023/03/31 05:23:00;;;;;;;;;;;9.00;99.90;;;;;;4970239;28;19926;-88
2023/03/31 05:25:31;;;;;;;;;;;9.00;99.90;;;;;;4968993;28;19975;-87
2023/03/31 05:27:59;;;;;;;;;;;9.00;99.90;;;;;;4961044;28;20403;-87
2023/03/31 05:30:26;;;;;;;;;;;9.00;99.90;;;;;;4975447;28;20372;-87
2023/03/31 05:32:55;;;;;;;;;;;9.00;99.90;;;;;;4962025;28;19961;-86
2023/03/31 05:35:22;;;;;;;;;;;9.00;99.90;;;;;;4969576;28;20066;-87
2023/03/31 05:37:49;;;;;;;;;;;9.00;99.90;;;;;;4947078;28;20320;-88
2023/03/31 05:40:16;;;;;;;;;;;9.00;99.90;;;;;;4960642;28;19926;-89
2023/03/31 05:42:43;;;;;;;;;;;9.00;99.90;;;;;;4964706;28;19962;-89
2023/03/31 05:45:11;;;;;;;;;;;9.00;99.90;;;;;;4967603;28;19933;-89
2023/03/31 05:47:38;;;;;;;;;;;8.90;99.90;;;;;;4969343;28;19933;-89
2023/03/31 05:50:07;;;;;;;;;;;9.00;99.90;;;;;;4966319;28;19937;-88
2023/03/31 05:52:34;;;;;;;;;;;8.90;99.90;;;;;;4960668;28;20009;-87
2023/03/31 05:55:02;;;;;;;;;;;8.90;99.90;;;;;;4964879;28;19957;-88
2023/03/31 05:57:29;;;;;;;;;;;8.90;99.90;;;;;;4965341;28;19930;-87
2023/03/31 05:59:56;;;;;;;;;;;8.90;99.90;;;;;;4964402;28;19926;-88
2023/03/31 06:02:23;;;;;;;;;;;8.90;99.90;;;;;;4960206;28;19926;-88
2023/03/31 06:04:50;;;;;;;;;;;8.90;99.90;;;;;;4962611;28;20372;-88
2023/03/31 06:07:21;;;;;;;;;;;8.90;99.90;;;;;;4986481;28;19926;-89
2023/03/31 06:09:48;;;;;;;;;;;8.90;99.90;;;;;;4981694;28;19993;-88
2023/03/31 06:12:14;;;;;;;;;;;8.90;99.90;;;;;;4962004;28;19930;-88
2023/03/31 06:14:41;;;;;;;;;;;9.00;99.90;;;;;;4966859;28;19933;-89
2023/03/31 06:17:08;;;;;;;;;;;8.90;99.90;;;;;;4965849;28;19934;-87
2023/03/31 06:19:35;;;;;;;;;;;8.90;99.90;;;;;;4962590;28;20021;-88
2023/03/31 06:22:02;;;;;;;;;;;8.90;99.90;;;;;;4962402;28;19931;-89
2023/03/31 06:24:31;;;;;;;;;;;8.90;99.90;;;;;;4968606;28;19934;-87
2023/03/31 06:26:59;;;;;;;;;;;8.90;99.90;;;;;;4968408;28;19934;-88
2023/03/31 06:29:26;;;;;;;;;;;8.90;99.90;;;;;;4961396;28;19926;-88
2023/03/31 06:31:53;;;;;;;;;;;8.90;99.90;;;;;;4971036;28;19926;-87
2023/03/31 06:34:20;;;;;;;;;;;8.90;99.90;;;;;;4968557;28;20388;-88
2023/03/31 06:36:50;;;;;;;;;;;8.80;99.90;;;;;;4954029;28;19990;-89
2023/03/31 06:39:16;;;;;;;;;;;8.90;99.90;;;;;;4982060;28;19926;-88
2023/03/31 06:41:45;;;;;;;;;;;8.80;99.90;;;;;;4971436;28;19926;-88
2023/03/31 06:44:21;;;;;;;;;;;8.80;99.90;;;;;;4976349;28;19914;-89
2023/03/31 06:46:48;;;;;;;;;;;8.80;99.90;;;;;;4985054;28;19929;-89
2023/03/31 06:49:15;;;;;;;;;;;8.80;99.90;;;;;;4975888;28;19949;-88
2023/03/31 06:51:42;;;;;;;;;;;8.80;99.90;;;;;;4965788;28;20025;-89
2023/03/31 06:54:09;;;;;;;;;;;8.80;99.90;;;;;;4965013;28;19934;-89
2023/03/31 06:56:36;;;;;;;;;;;8.80;99.90;;;;;;4959533;28;19934;-90
2023/03/31 06:59:06;;;;;;;;;;;8.90;99.90;;;;;;4968312;28;19980;-89
2023/03/31 07:01:36;;;;;;;;;;;8.80;99.90;;;;;;4961510;28;19930;-89
2023/03/31 07:04:03;;;;;;;;;;;8.80;99.90;;;;;;4963874;28;19930;-88
2023/03/31 07:06:30;;;;;;;;;;;8.80;99.90;;;;;;4965510;28;19950;-89
2023/03/31 07:08:57;;;;;;;;;;;8.80;99.90;;;;;;4962211;28;19954;-87
2023/03/31 07:11:24;;;;;;;;;;;8.80;99.90;;;;;;4965846;28;19926;-89
2023/03/31 07:13:50;;;;;;;;;;;8.80;99.90;;;;;;4965779;28;19984;-89
2023/03/31 07:16:19;;;;;;;;;;;8.80;99.90;;;;;;4964734;28;19976;-89
2023/03/31 07:18:47;;;;;;;;;;;8.80;99.90;;;;;;4966839;28;19957;-90
2023/03/31 07:21:14;;;;;;;;;;;8.80;99.90;;;;;;4969153;28;19962;-88
2023/03/31 07:23:41;;;;;;;;;;;8.80;99.90;;;;;;4961814;28;19949;-89
2023/03/31 07:26:08;;;;;;;;;;;8.80;99.90;;;;;;4965028;28;19933;-89
2023/03/31 07:28:35;;;;;;;;;;;8.80;99.90;;;;;;4958832;28;19933;-90
2023/03/31 07:31:02;;;;;;;;;;;8.80;99.90;;;;;;4965189;28;19930;-90
2023/03/31 07:33:30;;;;;;;;;;;8.80;99.90;;;;;;4963825;28;19930;-88
2023/03/31 07:35:57;;;;;;;;;;;8.80;99.90;;;;;;4969309;28;19980;-88
2023/03/31 07:38:24;;;;;;;;;;;8.80;99.90;;;;;;4965243;28;19932;-89
2023/03/31 07:40:51;;;;;;;;;;;8.80;99.90;;;;;;4963390;28;19926;-89
2023/03/31 07:43:18;;;;;;;;;;;8.80;99.90;;;;;;4962232;28;20385;-88
2023/03/31 07:45:45;;;;;;;;;;;8.80;99.90;;;;;;4964127;28;19930;-88
2023/03/31 07:48:15;;;;;;;;;;;8.80;99.90;;;;;;4967382;28;19926;-91
2023/03/31 07:50:43;;;;;;;;;;;8.80;99.90;;;;;;4967803;28;20384;-89
2023/03/31 07:53:18;;;;;;;;;;;8.90;99.90;;;;;;4965658;28;20008;-90
2023/03/31 07:55:46;;;;;;;;;;;8.90;99.90;;;;;;4967214;28;20333;-89
2023/03/31 07:58:13;;;;;;;;;;;8.80;99.90;;;;;;4962732;28;19948;-88
2023/03/31 08:00:40;;;;;;;;;;;8.80;99.90;;;;;;4963333;28;20393;-88
2023/03/31 08:03:07;;;;;;;;;;;8.90;99.90;;;;;;4968296;28;19930;-87
2023/03/31 08:05:34;;;;;;;;;;;8.90;99.90;;;;;;4957188;28;19930;-89
2023/03/31 08:08:03;;;;;;;;;;;8.90;99.90;;;;;;4964060;28;20372;-89
2023/03/31 08:10:30;;;;;;;;;;;8.90;99.90;;;;;;4961957;28;20414;-89
2023/03/31 08:12:57;;;;;;;;;;;8.90;99.90;;;;;;4973281;28;19982;-89
2023/03/31 08:15:24;;;;;;;;;;;8.90;99.90;;;;;;4964405;28;19970;-89
2023/03/31 08:17:51;;;;;;;;;;;8.90;99.90;;;;;;4967136;28;20417;-89
2023/03/31 08:20:18;;;;;;;;;;;8.90;99.90;;;;;;4965412;28;19954;-87
2023/03/31 08:22:45;;;;;;;;;;;8.90;99.90;;;;;;4962689;28;19934;-89
2023/03/31 08:25:13;;;;;;;;;;;8.90;99.90;;;;;;4962817;28;20020;-89
2023/03/31 08:27:40;;;;;;;;;;;8.90;99.90;;;;;;4970898;28;19934;-89
2023/03/31 08:30:08;;;;;;;;;;;8.90;99.90;;;;;;4964808;28;19932;-87
2023/03/31 08:32:36;;;;;;;;;;;9.00;99.90;;;;;;4969233;28;19926;-87
2023/03/31 08:35:03;;;;;;;;;;;9.00;99.90;;;;;;4970971;28;20444;-89
2023/03/31 08:37:30;;;;;;;;;;;9.00;99.90;;;;;;4966716;28;19970;-89
2023/03/31 08:39:57;;;;;;;;;;;9.00;99.90;;;;;;4972713;28;19930;-89
2023/03/31 08:42:30;;;;;;;;;;;9.00;99.90;;;;;;4967499;28;19930;-89
2023/03/31 08:44:59;;;;;;;;;;;9.00;99.90;;;;;;4970718;28;19926;-90
2023/03/31 08:47:27;;;;;;;;;;;9.10;99.90;;;;;;4962083;28;20368;-90
2023/03/31 08:49:57;;;;;;;;;;;9.00;99.90;;;;;;4968078;28;20140;-89
2023/03/31 08:52:27;;;;;;;;;;;9.10;99.90;;;;;;4965544;28;19949;-88
2023/03/31 08:54:56;;;;;;;;;;;9.10;99.90;;;;;;4967973;28;19932;-88
2023/03/31 08:57:25;;;;;;;;;;;9.10;99.90;;;;;;4970300;28;19929;-89
2023/03/31 08:59:57;;;;;;;;;;;9.20;99.90;;;;;;4966485;28;20380;-89
2023/03/31 09:02:29;;;;;;;;;;;9.20;99.90;;;;;;4961872;28;19926;-89
2023/03/31 09:05:05;;;;;;;;;;;9.20;99.90;;;;;;4965186;28;19930;-89
2023/03/31 09:07:37;;;;;;;;;;;9.20;99.90;;;;;;4968116;28;19926;-90
2023/03/31 09:10:11;;;;;;;;;;;9.30;99.90;;;;;;4969218;28;19935;-89
2023/03/31 09:12:45;;;;;;;;;;;9.30;99.90;;;;;;4970308;28;20832;-89
2023/03/31 09:15:14;;;;;;;;;;;9.30;99.90;;;;;;4963571;28;19926;-88
2023/03/31 09:17:43;;;;;;;;;;;9.30;99.90;;;;;;4963776;28;20016;-89
2023/03/31 09:20:13;;;;;;;;;;;9.30;99.90;;;;;;4969507;28;20016;-89
2023/03/31 09:22:44;;;;;;;;;;;9.30;99.90;;;;;;4958935;28;19926;-88
2023/03/31 09:25:12;;;;;;;;;;;9.40;99.90;;;;;;4968045;28;19926;-88
2023/03/31 09:27:41;;;;;;;;;;;9.40;99.90;;;;;;4969911;28;19926;-88
2023/03/31 09:30:11;;;;;;;;;;;9.50;99.90;;;;;;4972184;28;19926;-87
2023/03/31 09:32:40;;;;;;;;;;;9.60;99.90;;;;;;4965871;28;19930;-88
2023/03/31 09:35:14;;;;;;;;;;;9.60;99.90;;;;;;4970147;28;19930;-87
2023/03/31 09:37:41;;;;;;;;;;;9.70;99.90;;;;;;4964715;28;19942;-91
2023/03/31 09:40:15;;;;;;;;;;;9.70;99.90;;;;;;4966000;28;19926;-87
2023/03/31 09:42:42;;;;;;;;;;;9.80;99.90;;;;;;4968030;28;19927;-87
2023/03/31 09:45:14;;;;;;;;;;;9.90;99.90;;;;;;4961536;28;19961;-86
2023/03/31 09:47:45;;;;;;;;;;;9.90;99.90;;;;;;4970608;28;19926;-87
2023/03/31 09:50:13;;;;;;;;;;;9.90;99.90;;;;;;4960930;28;19933;-87
2023/03/31 09:52:41;;;;;;;;;;;9.90;99.90;;;;;;4970384;28;19926;-87
2023/03/31 09:55:17;;;;;;;;;;;9.90;99.90;;;;;;4968122;28;19930;-87
2023/03/31 09:57:45;;;;;;;;;;;10.00;99.90;;;;;;4969965;28;19926;-88
2023/03/31 10:00:15;;;;;;;;;;;10.00;99.90;;;;;;4966000;28;19933;-90
2023/03/31 10:02:44;;;;;;;;;;;10.10;99.90;;;;;;4975981;28;19938;-85
2023/03/31 10:05:29;;;;;;;;;;;10.20;99.90;;;;;;4973842;28;19930;-87
2023/03/31 10:08:14;;;;;;;;;;;10.30;99.90;;;;;;4970195;28;20405;-90
2023/03/31 10:10:44;;;;;;;;;;;10.30;99.90;;;;;;4986766;28;20401;-87
2023/03/31 10:13:15;;;;;;;;;;;10.30;99.90;;;;;;4969768;28;19929;-87
2023/03/31 10:15:42;;;;;;;;;;;10.40;99.90;;;;;;4970317;28;20024;-86
2023/03/31 10:18:14;;;;;;;;;;;10.40;99.90;;;;;;4972424;28;19945;-88
2023/03/31 10:20:44;;;;;;;;;;;10.50;99.90;;;;;;4988250;28;19930;-89
2023/03/31 10:23:16;;;;;;;;;;;10.60;99.90;;;;;;4986932;28;19934;-88
2023/03/31 10:25:43;;;;;;;;;;;10.60;99.90;;;;;;4964858;28;20361;-90
2023/03/31 10:28:11;;;;;;;;;;;10.60;99.90;;;;;;4970100;28;20020;-88
2023/03/31 10:30:40;;;;;;;;;;;10.70;99.90;;;;;;4974166;28;19926;-88
2023/03/31 10:33:11;;;;;;;;;;;10.70;99.90;;;;;;4967930;28;19945;-87
2023/03/31 10:35:40;;;;;;;;;;;10.70;99.90;;;;;;4967763;28;20352;-88
2023/03/31 10:38:10;;;;;;;;;;;10.70;99.90;;;;;;4964119;28;19981;-88
2023/03/31 10:40:38;;;;;;;;;;;10.70;99.90;;;;;;4964401;28;19930;-88
2023/03/31 10:43:10;;;;;;;;;;;10.70;99.90;;;;;;4956228;28;19931;-88
2023/03/31 10:45:37;;;;;;;;;;;10.70;99.90;;;;;;4963905;28;19926;-86
2023/03/31 10:48:06;;;;;;;;;;;10.80;99.90;;;;;;4962992;28;19926;-89
2023/03/31 10:50:35;;;;;;;;;;;10.90;99.90;;;;;;4967118;28;20333;-87
2023/03/31 10:53:04;;;;;;;;;;;10.90;99.90;;;;;;4962555;28;19973;-91
2023/03/31 10:55:35;;;;;;;;;;;10.90;99.90;;;;;;4967831;28;19930;-89
2023/03/31 10:58:05;;;;;;;;;;;10.90;99.90;;;;;;4966078;28;20385;-88
2023/03/31 11:00:36;;;;;;;;;;;11.00;99.90;;;;;;4963660;28;19930;-88
2023/03/31 11:03:14;;;;;;;;;;;11.00;99.90;;;;;;4965810;28;19926;-90
2023/03/31 11:05:44;;;;;;;;;;;11.10;99.90;;;;;;4971813;28;20392;-88
2023/03/31 11:08:25;;;;;;;;;;;11.10;99.90;;;;;;4970431;28;19926;-88
2023/03/31 11:10:59;;;;;;;;;;;11.10;99.90;;;;;;4969807;28;20028;-90
2023/03/31 11:13:31;;;;;;;;;;;11.10;99.90;;;;;;4970162;28;19934;-89
2023/03/31 11:16:01;;;;;;;;;;;11.20;99.90;;;;;;4962278;28;20001;-89
2023/03/31 11:18:35;;;;;;;;;;;11.20;99.90;;;;;;4967849;28;20319;-90
2023/03/31 11:21:11;;;;;;;;;;;11.20;99.90;;;;;;4960519;28;20210;-84
2023/03/31 11:23:41;;;;;;;;;;;11.30;99.90;;;;;;4959796;28;19927;-86
2023/03/31 11:26:11;;;;;;;;;;;11.30;99.90;;;;;;4950845;28;19981;-87
2023/03/31 11:28:46;;;;;;;;;;;11.30;99.90;;;;;;4962094;28;19933;-88
2023/03/31 11:31:20;;;;;;;;;;;11.40;99.90;;;;;;4972048;28;20058;-88
2023/03/31 11:33:51;;;;;;;;;;;11.40;99.90;;;;;;4955193;28;19930;-91
2023/03/31 11:36:25;;;;;;;;;;;11.40;99.90;;;;;;4971125;28;20339;-83
2023/03/31 11:38:58;;;;;;;;;;;11.40;99.90;;;;;;4959610;28;19945;-82
2023/03/31 11:41:30;;;;;;;;;;;11.40;99.90;;;;;;4956852;28;19934;-89
2023/03/31 11:44:02;;;;;;;;;;;11.50;99.90;;;;;;4951573;28;19930;-89
2023/03/31 11:46:32;;;;;;;;;;;11.50;99.90;;;;;;4957659;28;20021;-90
2023/03/31 11:49:00;;;;;;;;;;;11.50;99.90;;;;;;4957518;28;19930;-89
2023/03/31 11:51:29;;;;;;;;;;;11.60;99.90;;;;;;4960305;28;19934;-90
2023/03/31 11:54:00;;;;;;;;;;;11.50;99.90;;;;;;4985265;28;19933;-89
2023/03/31 11:56:29;;;;;;;;;;;11.60;99.90;;;;;;4945972;28;19926;-92
2023/03/31 11:58:58;;;;;;;;;;;11.50;99.90;;;;;;4973644;28;19969;-88
2023/03/31 12:01:26;;;;;;;;;;;11.50;99.90;;;;;;4960775;28;20393;-88
2023/03/31 12:03:56;;;;;;;;;;;11.60;99.90;;;;;;4958305;28;19997;-89
2023/03/31 12:06:26;;;;;;;;;;;11.50;99.90;;;;;;4961224;28;19930;-91
2023/03/31 12:08:58;;;;;;;;;;;11.30;99.90;;;;;;4967522;28;19934;-89
2023/03/31 12:11:31;;;;;;;;;;;11.30;99.90;;;;;;4960219;28;19961;-90
2023/03/31 12:14:00;;;;;;;;;;;11.20;99.90;;;;;;4963884;28;19926;-88
2023/03/31 12:16:32;;;;;;;;;;;11.20;99.90;;;;;;4966251;28;20463;-91
2023/03/31 12:19:02;;;;;;;;;;;11.20;99.90;;;;;;4970129;28;20033;-89
2023/03/31 12:21:30;;;;;;;;;;;11.20;99.90;;;;;;4965156;28;19958;-91
2023/03/31 12:23:57;;;;;;;;;;;11.20;99.90;;;;;;4961756;28;19977;-90
2023/03/31 12:26:37;;;;;;;;;;;11.10;99.90;;;;;;4966826;28;20304;-89
2023/03/31 12:29:07;;;;;;;;;;;11.10;99.90;;;;;;4970319;28;19926;-89
2023/03/31 12:31:44;;;;;;;;;;;11.10;99.90;;;;;;4968512;28;19934;-89
2023/03/31 12:34:13;;;;;;;;;;;11.10;99.90;;;;;;4959028;28;19934;-91
2023/03/31 12:36:45;;;;;;;;;;;11.20;99.90;;;;;;4969077;28;19989;-90
2023/03/31 12:39:27;;;;;;;;;;;11.20;99.90;;;;;;4984145;28;19934;-90
2023/03/31 12:42:12;;;;;;;;;;;11.20;99.90;;;;;;4961522;28;19996;-89
2023/03/31 12:44:45;;;;;;;;;;;11.20;99.90;;;;;;4969773;28;20404;-88
2023/03/31 12:47:22;;;;;;;;;;;11.20;99.90;;;;;;4968911;28;20188;-90
2023/03/31 12:49:56;;;;;;;;;;;11.30;99.90;;;;;;4963833;28;20113;-88
2023/03/31 12:52:31;;;;;;;;;;;11.30;99.90;;;;;;4981038;28;20384;-89
2023/03/31 12:55:21;;;;;;;;;;;11.30;99.90;;;;;;4966220;28;19934;-89
2023/03/31 12:57:49;;;;;;;;;;;11.30;99.90;;;;;;4968154;28;20016;-89
2023/03/31 13:00:24;;;;;;;;;;;11.30;99.90;;;;;;4968166;28;19977;-91
2023/03/31 13:03:13;;;;;;;;;;;11.40;99.90;;;;;;4967992;28;19933;-89
2023/03/31 13:05:46;;;;;;;;;;;11.40;99.90;;;;;;4965042;28;19926;-89
2023/03/31 13:08:33;;;;;;;;;;;11.40;99.90;;;;;;4973182;28;20038;-90
2023/03/31 13:11:00;;;;;;;;;;;11.50;99.90;;;;;;4964373;28;19961;-91
2023/03/31 13:13:27;;;;;;;;;;;11.50;99.90;;;;;;4961878;28;19961;-88
2023/03/31 13:15:55;;;;;;;;;;;11.60;99.90;;;;;;4974494;28;19926;-90
2023/03/31 13:18:22;;;;;;;;;;;11.60;99.90;;;;;;4968415;28;19993;-91
2023/03/31 13:20:59;;;;;;;;;;;11.60;99.90;;;;;;4970776;28;20009;-90
2023/03/31 13:23:27;;;;;;;;;;;11.70;99.90;;;;;;4970339;28;20024;-90
2023/03/31 13:25:54;;;;;;;;;;;11.70;99.90;;;;;;4968682;28;19985;-90
2023/03/31 13:28:42;;;;;;;;;;;11.70;99.90;;;;;;4968494;28;19978;-92
2023/03/31 13:31:10;;;;;;;;;;;11.70;99.90;;;;;;4952777;28;20160;-93
2023/03/31 13:33:39;;;;;;;;;;;11.70;99.90;;;;;;4961783;28;19926;-90
2023/03/31 13:36:40;;;;;;;;;;;11.70;99.90;;;;;;4967390;28;20209;-90
2023/03/31 13:39:12;;;;;;;;;;;11.80;99.90;;;;;;4962207;28;19936;-90
2023/03/31 13:41:48;;;;;;;;;;;11.80;99.90;;;;;;4957171;28;19961;-92
2023/03/31 13:44:30;;;;;;;;;;;11.70;99.90;;;;;;4975328;28;20340;-90
2023/03/31 13:47:14;;;;;;;;;;;11.80;99.90;;;;;;4970401;28;19937;-90
2023/03/31 13:49:50;;;;;;;;;;;11.80;99.90;;;;;;4989771;28;19910;-90
2023/03/31 13:52:26;;;;;;;;;;;11.80;99.90;;;;;;4991187;28;19910;-89
2023/03/31 13:55:06;;;;;;;;;;;11.70;99.90;;;;;;4972214;28;19930;-90
2023/03/31 13:57:45;;;;;;;;;;;11.70;99.90;;;;;;4980603;28;20466;-89
2023/03/31 14:00:24;;;;;;;;;;;11.70;99.90;;;;;;4969286;28;19926;-90
2023/03/31 14:03:00;;;;;;;;;;;11.70;99.90;;;;;;4974178;28;19926;-90
2023/03/31 14:05:29;;;;;;;;;;;11.70;99.90;;;;;;4962332;28;19926;-90
2023/03/31 14:07:58;;;;;;;;;;;11.70;99.90;;;;;;4977943;28;19927;-90
2023/03/31 14:10:27;;;;;;;;;;;11.80;99.90;;;;;;4968313;28;19949;-90
2023/03/31 14:13:04;;;;;;;;;;;11.70;99.90;;;;;;4988576;28;19934;-89
2023/03/31 14:15:31;;;;;;;;;;;11.70;99.90;;;;;;4974344;28;19926;-90
2023/03/31 14:17:58;;;;;;;;;;;11.80;99.90;;;;;;4975875;28;19926;-90
2023/03/31 14:20:28;;;;;;;;;;;11.80;99.90;;;;;;4973013;28;19930;-89
2023/03/31 14:23:02;;;;;;;;;;;11.80;99.90;;;;;;4966064;28;19941;-89
2023/03/31 14:25:36;;;;;;;;;;;11.80;99.90;;;;;;4973649;28;19933;-91
2023/03/31 14:28:12;;;;;;;;;;;11.80;99.90;;;;;;4967468;28;19937;-91
2023/03/31 14:30:45;;;;;;;;;;;11.80;99.90;;;;;;4969260;28;19933;-89
2023/03/31 14:33:21;;;;;;;;;;;11.80;99.90;;;;;;4964825;28;19926;-90
2023/03/31 14:35:54;;;;;;;;;;;11.80;99.90;;;;;;4966443;28;19926;-88
2023/03/31 14:38:22;;;;;;;;;;;11.80;99.90;;;;;;4971239;28;19930;-90
2023/03/31 14:40:52;;;;;;;;;;;11.80;99.90;;;;;;4967338;28;19926;-90
2023/03/31 14:43:20;;;;;;;;;;;11.80;99.90;;;;;;4966661;28;20002;-90